Terminal Aerodrome Forecast
Issued by NWS

Home | Current Version | Previous Version | Text Only | Print | Product List | Glossary On
Versions: 1 2 3 4 5 6 7 8 9 10 11 12 13 14 15 16
000
FTUS43 KICT 251732
TAFHUT
TAF
KHUT 251732Z 2518/2618 33029G40KT P6SM SCT035 BKN060
     FM252300 34018KT P6SM SCT060
     FM260100 33009KT P6SM SCT120
     FM260500 VRB05KT P6SM SKC
     FM261100 24006KT P6SM SKC
     FM261300 22008KT P6SM SCT050
     FM261600 25012KT P6SM SCT050=

USA.gov is the U.S. government's official web portal to all federal, state and local government web resources and services.